Time;durP1;ratioP1;P1;durP2;ratioP2;P2;SDS_P1;SDS_P2;PMS_P1;PMS_P2;Temp;Humidity;BMP_temperature;BMP_pressure;BME280_temperature;BME280_humidity;BME280_pressure;Samples;Min_cycle;Max_cycle;Signal;HPM_P1;HPM_P2
2021/11/18 00:00:07;;;;;;;16.00;6.93;;;;;;;6.79;89.89;102049.88;5042670;28;20701;-72
2021/11/18 00:02:33;;;;;;;16.02;6.45;;;;;;;6.77;89.59;102067.88;5048346;28;20044;-72
2021/11/18 00:04:58;;;;;;;20.08;7.22;;;;;;;6.78;89.99;102065.03;5041784;28;20087;-72
2021/11/18 00:07:24;;;;;;;14.65;7.32;;;;;;;6.76;89.66;102072.38;5042425;28;21638;-72
2021/11/18 00:09:49;;;;;;;14.90;6.00;;;;;;;6.75;89.63;102081.41;5041275;28;20122;-72
2021/11/18 00:12:15;;;;;;;16.88;6.95;;;;;;;6.73;89.66;102077.28;5038964;28;20021;-70
2021/11/18 00:14:41;;;;;;;19.45;7.88;;;;;;;6.72;89.41;102087.13;5035712;28;20021;-69
2021/11/18 00:17:06;;;;;;;19.35;8.43;;;;;;;6.73;90.03;102085.28;5034692;28;20021;-70
2021/11/18 00:19:32;;;;;;;17.48;7.32;;;;;;;6.63;90.53;102085.56;5037090;28;20031;-70
2021/11/18 00:21:57;;;;;;;20.63;7.70;;;;;;;6.63;90.72;102083.72;5038632;28;20031;-70
2021/11/18 00:24:23;;;;;;;17.27;6.72;;;;;;;6.59;90.49;102089.63;5037335;28;20384;-70
2021/11/18 00:26:54;;;;;;;19.73;6.35;;;;;;;6.63;90.32;102080.25;5038849;28;20108;-70
2021/11/18 00:29:22;;;;;;;16.45;6.97;;;;;;;6.59;90.38;102089.63;5036271;28;20116;-70
2021/11/18 00:31:48;;;;;;;19.65;6.43;;;;;;;6.57;90.87;102081.00;5038450;28;20497;-70
2021/11/18 00:34:14;;;;;;;36.95;7.32;;;;;;;6.48;90.98;102077.66;5036882;28;20021;-70
2021/11/18 00:36:39;;;;;;;15.13;5.78;;;;;;;6.43;91.17;102073.88;5035981;28;20857;-70
2021/11/18 00:39:06;;;;;;;23.67;7.25;;;;;;;6.44;91.32;102079.03;5035060;28;20039;-70
2021/11/18 00:41:32;;;;;;;17.90;7.20;;;;;;;6.33;91.43;102077.69;5038400;28;20094;-70
2021/11/18 00:43:58;;;;;;;15.68;7.00;;;;;;;6.33;91.89;102075.03;5041452;28;21909;-70
2021/11/18 00:46:24;;;;;;;20.73;7.15;;;;;;;6.26;92.33;102092.75;5037760;28;20025;-70
2021/11/18 00:48:50;;;;;;;16.42;5.53;;;;;;;6.28;92.24;102084.56;5037765;28;20076;-70
2021/11/18 00:51:19;;;;;;;15.00;5.93;;;;;;;6.30;92.08;102096.69;5044784;28;20039;-70
2021/11/18 00:53:48;;;;;;;14.45;5.57;;;;;;;6.40;91.40;102087.56;5048853;28;20048;-70
2021/11/18 00:56:15;;;;;;;16.73;5.60;;;;;;;6.38;91.34;102101.06;5042131;28;20036;-70
2021/11/18 00:58:41;;;;;;;18.75;7.10;;;;;;;6.43;90.47;102100.50;5038299;28;20028;-70
2021/11/18 01:01:07;;;;;;;11.75;5.78;;;;;;;6.38;90.17;102116.22;5041011;28;21103;-70
2021/11/18 01:03:34;;;;;;;20.08;7.55;;;;;;;6.39;90.73;102112.56;5038046;28;20026;-70
2021/11/18 01:06:00;;;;;;;21.52;6.15;;;;;;;6.26;91.07;102107.88;5032744;28;20106;-70
2021/11/18 01:08:26;;;;;;;19.73;6.40;;;;;;;6.22;91.25;102112.75;5041373;28;20122;-70
2021/11/18 01:10:58;;;;;;;16.45;6.45;;;;;;;6.18;91.39;102110.66;5038496;28;20053;-69
2021/11/18 01:13:25;;;;;;;20.70;6.28;;;;;;;6.19;91.07;102107.81;5036980;28;20611;-70
2021/11/18 01:15:51;;;;;;;17.83;5.78;;;;;;;6.16;91.26;102108.19;5038114;28;20086;-69
2021/11/18 01:18:18;;;;;;;18.27;5.57;;;;;;;6.17;91.54;102107.19;5037343;28;20086;-70
2021/11/18 01:20:44;;;;;;;13.73;5.80;;;;;;;6.17;90.94;102109.84;5037643;28;20033;-70
2021/11/18 01:23:15;;;;;;;19.05;6.75;;;;;;;6.13;91.01;102108.56;5037160;28;20040;-70
2021/11/18 01:25:42;;;;;;;23.30;6.13;;;;;;;6.21;90.96;102115.63;5038591;28;20083;-70
2021/11/18 01:28:08;;;;;;;15.65;6.10;;;;;;;6.21;90.64;102104.97;5037089;28;20021;-70
2021/11/18 01:30:35;;;;;;;15.55;6.18;;;;;;;6.19;90.69;102122.97;5038399;28;20106;-70
2021/11/18 01:33:03;;;;;;;18.75;6.22;;;;;;;6.08;91.30;102116.25;5038099;28;20556;-70
2021/11/18 01:35:29;;;;;;;17.27;5.95;;;;;;;6.09;91.19;102128.56;5039883;28;20032;-70
2021/11/18 01:37:55;;;;;;;21.40;5.63;;;;;;;6.09;91.10;102128.56;5036104;28;20036;-70
2021/11/18 01:40:25;;;;;;;16.63;5.75;;;;;;;6.22;90.72;102117.25;5038277;28;20032;-70
2021/11/18 01:42:52;;;;;;;21.83;6.20;;;;;;;6.16;90.73;102124.16;5040608;28;20028;-70
2021/11/18 01:45:19;;;;;;;21.40;5.57;;;;;;;6.11;91.11;102115.09;5034481;28;20105;-70
2021/11/18 01:47:46;;;;;;;23.23;7.78;;;;;;;6.07;90.52;102114.59;5037681;28;20055;-70
2021/11/18 01:50:15;;;;;;;23.23;7.28;;;;;;;6.00;91.38;102129.66;5036709;28;20387;-70
2021/11/18 01:52:44;;;;;;;20.13;6.50;;;;;;;5.89;91.58;102138.06;5042265;28;20506;-69
2021/11/18 01:55:09;;;;;;;18.05;6.25;;;;;;;5.84;92.23;102132.47;5038125;28;20059;-69
2021/11/18 01:57:36;;;;;;;20.80;6.57;;;;;;;5.89;92.27;102130.09;5034724;28;20450;-70
2021/11/18 02:00:11;;;;;;;17.63;6.68;;;;;;;5.80;92.19;102128.53;5037255;28;20639;-70
2021/11/18 02:02:36;;;;;;;15.93;5.78;;;;;;;5.89;92.29;102135.41;5039348;28;20602;-69
2021/11/18 02:05:17;;;;;;;13.10;5.25;;;;;;;5.89;92.18;102146.03;5038141;28;20073;-70
2021/11/18 02:07:45;;;;;;;24.17;7.75;;;;;;;5.88;92.36;102139.06;5038102;28;20116;-70
2021/11/18 02:10:21;;;;;;;20.70;7.18;;;;;;;5.92;92.49;102141.22;5041661;28;20030;-69
2021/11/18 02:12:48;;;;;;;22.58;7.18;;;;;;;5.95;92.46;102138.22;5035335;28;20116;-70
2021/11/18 02:15:45;;;;;;;18.88;5.95;;;;;;;5.95;92.31;102140.88;5039013;28;20021;-70
2021/11/18 02:18:35;;;;;;;19.80;7.45;;;;;;;5.93;92.51;102150.03;5035866;28;20032;-70
2021/11/18 02:21:05;;;;;;;19.45;8.35;;;;;;;5.86;92.14;102165.88;5040521;28;20056;-70
2021/11/18 02:23:53;;;;;;;24.58;6.72;;;;;;;5.95;91.97;102140.03;5028661;28;20379;-70
2021/11/18 02:26:20;;;;;;;22.02;6.47;;;;;;;5.88;92.14;102121.28;5039692;28;20394;-70
2021/11/18 02:28:48;;;;;;;20.42;6.80;;;;;;;5.92;92.16;102140.38;5035832;28;20052;-70
2021/11/18 02:31:32;;;;;;;20.88;7.05;;;;;;;5.85;92.72;102147.44;5037667;28;20394;-70
2021/11/18 02:34:00;;;;;;;25.38;7.43;;;;;;;5.91;92.30;102152.03;5040208;28;20111;-69
2021/11/18 02:36:25;;;;;;;22.55;7.18;;;;;;;5.90;92.61;102140.56;5049003;28;20048;-71
2021/11/18 02:38:52;;;;;;;19.30;6.20;;;;;;;5.93;92.09;102140.22;5049580;28;20067;-73
2021/11/18 02:41:19;;;;;;;19.95;6.22;;;;;;;5.89;92.33;102143.38;5051304;28;20491;-73
2021/11/18 02:43:45;;;;;;;15.77;5.63;;;;;;;5.90;92.70;102143.22;5045909;28;20103;-72
2021/11/18 02:46:10;;;;;;;20.10;6.55;;;;;;;5.84;92.44;102145.78;5044922;28;20112;-72
2021/11/18 02:48:37;;;;;;;18.08;6.53;;;;;;;5.91;92.15;102144.06;5052039;28;20028;-72
2021/11/18 02:51:08;;;;;;;19.05;6.80;;;;;;;5.91;91.86;102147.53;5048720;28;20029;-72
2021/11/18 02:53:34;;;;;;;19.75;6.85;;;;;;;5.91;91.90;102152.88;5049079;28;20036;-72
2021/11/18 02:56:01;;;;;;;19.15;6.95;;;;;;;5.90;91.92;102145.06;5048715;28;20028;-72
2021/11/18 02:58:27;;;;;;;25.63;6.95;;;;;;;5.90;91.87;102156.53;5049754;28;20546;-71
2021/11/18 03:01:26;;;;;;;23.10;6.97;;;;;;;5.81;92.11;102154.94;5043015;28;20029;-71
2021/11/18 03:03:51;;;;;;;19.00;6.57;;;;;;;5.90;91.86;102151.22;5041561;28;20042;-72
2021/11/18 03:06:18;;;;;;;22.60;6.50;;;;;;;5.83;92.41;102144.13;5046830;28;20043;-72
2021/11/18 03:08:44;;;;;;;15.02;5.45;;;;;;;5.82;92.47;102148.63;5043781;28;20033;-73
2021/11/18 03:11:10;;;;;;;26.83;7.47;;;;;;;5.78;91.86;102149.19;5043561;28;20031;-73
2021/11/18 03:13:37;;;;;;;17.85;6.25;;;;;;;5.76;92.29;102152.03;5044774;28;20024;-73
2021/11/18 03:16:05;;;;;;;18.85;7.97;;;;;;;5.60;92.97;102147.69;5050067;28;20029;-73
2021/11/18 03:18:31;;;;;;;16.83;7.18;;;;;;;5.49;93.11;102155.25;5044162;28;20497;-72
2021/11/18 03:20:59;;;;;;;15.23;6.50;;;;;;;5.44;93.89;102161.13;5040409;28;20041;-73
2021/11/18 03:23:25;;;;;;;19.95;7.38;;;;;;;5.50;93.92;102155.06;5046599;28;20032;-72
2021/11/18 03:25:52;;;;;;;21.42;7.20;;;;;;;5.45;94.27;102154.81;5045790;28;20036;-72
2021/11/18 03:28:19;;;;;;;24.60;7.88;;;;;;;5.37;94.53;102145.06;5047552;28;20056;-72
2021/11/18 03:30:46;;;;;;;25.30;7.65;;;;;;;5.34;95.01;102150.72;5041628;28;20606;-72
2021/11/18 03:33:16;;;;;;;25.80;8.02;;;;;;;5.29;95.27;102155.75;5045976;28;20033;-73
2021/11/18 03:35:42;;;;;;;25.05;6.25;;;;;;;5.27;95.52;102151.63;5043073;28;20494;-73
2021/11/18 03:38:08;;;;;;;17.30;6.50;;;;;;;5.40;95.36;102151.88;5047940;28;20115;-72
2021/11/18 03:40:35;;;;;;;20.45;7.30;;;;;;;5.40;95.19;102165.97;5033871;28;20037;-70
2021/11/18 03:43:00;;;;;;;21.88;7.15;;;;;;;5.45;94.82;102162.78;5037380;28;20032;-71
2021/11/18 03:45:29;;;;;;;19.33;8.07;;;;;;;5.43;94.30;102170.94;5035529;28;20040;-70
2021/11/18 03:47:55;;;;;;;20.27;7.25;;;;;;;5.45;94.67;102170.75;5034667;28;20047;-70
2021/11/18 03:50:21;;;;;;;23.23;6.85;;;;;;;5.39;94.65;102168.81;5033634;28;20037;-70
2021/11/18 03:52:47;;;;;;;19.50;7.07;;;;;;;5.41;94.57;102167.63;5034985;28;20029;-71
2021/11/18 03:55:15;;;;;;;22.58;6.93;;;;;;;5.41;94.73;102159.66;5032257;28;20056;-70
2021/11/18 03:57:41;;;;;;;20.60;7.65;;;;;;;5.46;94.45;102164.44;5041517;28;20115;-70
2021/11/18 04:00:14;;;;;;;16.58;6.72;;;;;;;5.33;94.86;102162.38;5037217;28;22083;-70
2021/11/18 04:02:40;;;;;;;25.63;7.50;;;;;;;5.20;95.44;102153.34;5042412;28;20035;-70
2021/11/18 04:05:06;;;;;;;19.23;7.57;;;;;;;5.26;95.56;102149.97;5038029;28;20048;-70
2021/11/18 04:07:38;;;;;;;21.13;6.53;;;;;;;5.16;95.53;102174.94;5040780;28;20024;-70
2021/11/18 04:10:06;;;;;;;18.88;6.53;;;;;;;5.18;95.60;102171.28;5039183;28;20103;-70
2021/11/18 04:12:33;;;;;;;20.15;6.85;;;;;;;5.13;96.13;102187.78;5038012;28;20746;-70
2021/11/18 04:14:58;;;;;;;25.85;7.80;;;;;;;5.11;96.17;102190.59;5037184;28;20040;-70
2021/11/18 04:17:24;;;;;;;19.60;6.40;;;;;;;5.21;96.44;102189.56;5055593;28;20597;-70
2021/11/18 04:19:49;;;;;;;22.40;6.47;;;;;;;5.18;96.61;102192.53;5041086;28;20090;-70
2021/11/18 04:22:15;;;;;;;23.90;7.05;;;;;;;5.15;96.43;102183.94;5041006;28;20029;-70
2021/11/18 04:24:43;;;;;;;23.65;7.68;;;;;;;5.10;96.87;102186.28;5047199;28;20119;-70
2021/11/18 04:27:10;;;;;;;22.38;8.43;;;;;;;5.05;97.04;102183.34;5040182;28;20595;-70
2021/11/18 04:29:35;;;;;;;18.13;7.30;;;;;;;5.07;97.22;102184.00;5038613;28;20032;-70
2021/11/18 04:32:14;;;;;;;16.95;5.57;;;;;;;5.00;97.54;102190.19;5030580;28;20607;-70
2021/11/18 04:34:40;;;;;;;20.52;6.65;;;;;;;5.10;96.89;102186.28;5044755;28;20384;-70
2021/11/18 04:37:06;;;;;;;19.90;6.35;;;;;;;5.08;96.81;102193.63;5036317;28;20028;-70
2021/11/18 04:39:32;;;;;;;18.00;6.75;;;;;;;4.98;97.23;102197.50;5043481;28;20487;-70
2021/11/18 04:41:58;;;;;;;23.42;7.10;;;;;;;4.96;97.58;102188.88;5040008;28;20032;-70
2021/11/18 04:44:23;;;;;;;19.75;7.28;;;;;;;5.03;97.94;102203.97;5042227;28;20055;-70
2021/11/18 04:46:49;;;;;;;19.63;5.97;;;;;;;5.13;97.71;102201.88;5036599;28;20037;-70
2021/11/18 04:49:15;;;;;;;22.15;6.60;;;;;;;5.14;97.21;102197.38;5039331;28;20120;-70
2021/11/18 04:51:41;;;;;;;16.70;6.32;;;;;;;5.20;96.96;102201.16;5037372;28;20391;-70
2021/11/18 04:54:08;;;;;;;14.43;5.85;;;;;;;5.16;96.57;102196.22;5046114;28;20028;-70
2021/11/18 04:56:36;;;;;;;20.83;5.93;;;;;;;5.13;96.83;102201.06;5038411;28;20509;-70
2021/11/18 04:59:02;;;;;;;23.40;7.07;;;;;;;5.10;96.99;102207.56;5039883;28;20060;-70
2021/11/18 05:01:28;;;;;;;16.92;6.43;;;;;;;5.03;97.12;102205.78;5040697;28;20025;-70
2021/11/18 05:03:55;;;;;;;20.27;6.40;;;;;;;5.08;97.26;102198.94;5041056;28;20025;-70
2021/11/18 05:06:21;;;;;;;20.25;7.20;;;;;;;5.08;97.54;102193.63;5036363;28;20122;-70
2021/11/18 05:08:47;;;;;;;20.90;6.20;;;;;;;5.02;97.17;102191.66;5037470;28;20036;-71
2021/11/18 05:11:14;;;;;;;17.77;6.47;;;;;;;5.02;97.35;102189.00;5039683;28;20029;-70
2021/11/18 05:13:40;;;;;;;16.55;5.93;;;;;;;5.02;97.57;102194.31;5036594;28;20102;-70
2021/11/18 05:16:09;;;;;;;21.08;7.47;;;;;;;5.01;97.25;102200.63;5036806;28;20017;-70
2021/11/18 05:18:35;;;;;;;20.23;6.45;;;;;;;5.03;96.86;102195.16;5037190;28;22375;-70
2021/11/18 05:21:02;;;;;;;18.88;5.82;;;;;;;5.10;96.98;102196.91;5038539;28;20070;-70
2021/11/18 05:23:28;;;;;;;20.17;5.97;;;;;;;5.20;96.57;102201.16;5040117;28;20029;-71
2021/11/18 05:25:55;;;;;;;18.00;5.85;;;;;;;5.16;96.93;102198.88;5038156;28;20033;-70
2021/11/18 05:28:21;;;;;;;22.05;6.75;;;;;;;5.19;96.47;102199.50;5030216;28;20111;-70
2021/11/18 05:30:47;;;;;;;21.20;5.80;;;;;;;5.16;96.22;102211.31;5035752;28;20427;-70
2021/11/18 05:33:14;;;;;;;15.20;5.72;;;;;;;5.20;96.08;102217.94;5039419;28;20033;-70
2021/11/18 05:35:40;;;;;;;20.45;6.00;;;;;;;5.29;95.81;102211.56;5038394;28;20605;-70
2021/11/18 05:38:07;;;;;;;13.85;5.00;;;;;;;5.24;95.56;102218.44;5039231;28;20483;-70
2021/11/18 05:40:34;;;;;;;18.13;5.38;;;;;;;5.23;96.05;102217.59;5036388;28;20018;-70
2021/11/18 05:43:00;;;;;;;14.95;4.88;;;;;;;5.19;95.80;102210.13;5035839;28;20100;-70
2021/11/18 05:45:28;;;;;;;23.55;5.80;;;;;;;5.18;95.43;102219.13;5043113;28;20037;-70
2021/11/18 05:47:55;;;;;;;19.70;7.47;;;;;;;5.14;96.21;102208.03;5044264;28;20046;-70
2021/11/18 05:50:22;;;;;;;24.92;6.40;;;;;;;5.11;96.47;102208.38;5038464;28;20122;-70
2021/11/18 05:52:49;;;;;;;17.20;5.80;;;;;;;5.08;96.48;102212.22;5039259;28;20029;-70
2021/11/18 05:55:17;;;;;;;16.77;6.07;;;;;;;5.06;96.46;102216.06;5035138;28;20546;-70
2021/11/18 05:57:43;;;;;;;15.65;6.03;;;;;;;5.11;96.28;102214.50;5036933;28;20025;-70
2021/11/18 06:00:12;;;;;;;13.32;5.55;;;;;;;5.06;96.70;102213.41;5036679;28;20024;-70
2021/11/18 06:02:38;;;;;;;21.42;6.13;;;;;;;5.03;96.46;102213.75;5037248;28;20491;-70
2021/11/18 06:05:05;;;;;;;19.98;6.60;;;;;;;5.06;95.96;102222.19;5041842;28;20035;-70
2021/11/18 06:07:32;;;;;;;17.48;6.85;;;;;;;5.05;96.21;102230.34;5040873;28;20029;-70
2021/11/18 06:09:58;;;;;;;19.92;6.13;;;;;;;4.98;97.29;102230.19;5037076;28;20171;-70
2021/11/18 06:12:24;;;;;;;16.55;6.28;;;;;;;5.01;97.28;102231.66;5045048;28;20029;-70
2021/11/18 06:14:52;;;;;;;20.20;5.82;;;;;;;4.99;98.18;102223.06;5033829;28;20030;-71
2021/11/18 06:17:18;;;;;;;15.65;7.07;;;;;;;5.00;98.31;102227.38;5044234;22;20061;-61
2021/11/18 06:19:43;;;;;;;41.45;8.25;;;;;;;5.01;98.18;102231.66;5032078;28;20047;-56
2021/11/18 06:22:10;;;;;;;18.80;6.40;;;;;;;4.95;98.85;102233.22;5036702;28;20094;-58
2021/11/18 06:24:35;;;;;;;17.48;5.53;;;;;;;4.99;98.92;102234.50;5035732;28;20136;-57
2021/11/18 06:27:01;;;;;;;14.07;6.13;;;;;;;4.94;98.77;102220.94;5034134;28;20386;-58
2021/11/18 06:29:30;;;;;;;18.10;5.60;;;;;;;5.03;98.31;102217.25;5038139;28;20048;-57
2021/11/18 06:31:59;;;;;;;22.85;6.28;;;;;;;4.98;98.77;102235.50;5041509;22;20498;-75
2021/11/18 06:34:25;;;;;;;18.27;6.47;;;;;;;4.84;99.50;102237.06;5043699;28;20116;-74
2021/11/18 06:36:52;;;;;;;18.60;6.30;;;;;;;4.95;99.38;102245.66;5029077;28;20075;-74
2021/11/18 06:39:18;;;;;;;22.25;7.40;;;;;;;5.01;99.67;102239.63;5007657;28;20033;-74
2021/11/18 06:41:45;;;;;;;23.08;6.82;;;;;;;4.97;99.70;102249.78;5016545;28;20036;-74
2021/11/18 06:44:11;;;;;;;16.35;6.13;;;;;;;4.96;99.67;102239.34;5017629;28;20101;-74
2021/11/18 06:46:37;;;;;;;22.42;7.38;;;;;;;5.03;98.93;102248.28;5015003;28;20486;-74
2021/11/18 06:49:04;;;;;;;23.77;7.47;;;;;;;4.99;99.10;102237.16;5009399;28;20033;-73
2021/11/18 06:51:30;;;;;;;16.65;6.35;;;;;;;5.04;99.07;102236.66;5015949;28;20480;-73
2021/11/18 06:53:58;;;;;;;27.25;7.38;;;;;;;4.94;99.25;102238.69;5015036;28;20253;-73
2021/11/18 06:56:25;;;;;;;21.13;7.50;;;;;;;4.96;99.48;102240.16;5013272;28;20505;-73
2021/11/18 06:58:51;;;;;;;27.15;7.88;;;;;;;4.93;100.00;102243.19;5010235;28;20052;-73
2021/11/18 07:01:18;;;;;;;28.55;8.93;;;;;;;4.92;100.00;102251.31;5015538;28;20060;-73
2021/11/18 07:03:44;;;;;;;22.02;6.63;;;;;;;5.01;100.00;102255.59;5015854;28;20031;-74
2021/11/18 07:06:13;;;;;;;22.33;7.25;;;;;;;5.03;100.00;102256.25;5019246;28;20034;-75
2021/11/18 07:08:39;;;;;;;28.10;7.30;;;;;;;4.97;100.00;102265.72;5015023;28;20095;-73
2021/11/18 07:11:06;;;;;;;23.83;6.47;;;;;;;5.09;100.00;102259.03;5015242;28;20029;-73
2021/11/18 07:13:33;;;;;;;24.35;7.40;;;;;;;5.13;100.00;102268.31;5022046;28;20063;-75
2021/11/18 07:16:04;;;;;;;22.00;7.30;;;;;;;5.15;100.00;102268.94;5014852;28;20034;-73
2021/11/18 07:18:31;;;;;;;22.10;8.13;;;;;;;5.15;100.00;102268.94;5015039;28;20108;-74
2021/11/18 07:20:57;;;;;;;24.63;8.38;;;;;;;5.24;100.00;102285.69;5014304;28;20091;-73
2021/11/18 07:23:24;;;;;;;21.92;7.43;;;;;;;5.37;99.85;102290.41;5017892;28;20032;-73
2021/11/18 07:25:53;;;;;;;21.90;6.93;;;;;;;5.41;99.85;102289.91;5015902;28;20084;-74
2021/11/18 07:28:21;;;;;;;23.70;6.75;;;;;;;5.57;100.00;102278.34;5014440;28;20036;-73
2021/11/18 07:30:48;;;;;;;21.67;6.80;;;;;;;5.69;99.58;102282.19;5018308;28;20044;-74
2021/11/18 07:33:14;;;;;;;26.83;7.25;;;;;;;5.75;99.31;102281.50;5017892;28;20111;-75
2021/11/18 07:35:41;;;;;;;24.27;6.88;;;;;;;5.86;98.32;102292.72;5021155;28;20041;-74
2021/11/18 07:38:06;;;;;;;30.10;8.32;;;;;;;5.93;98.15;102318.47;5013073;28;20028;-74
2021/11/18 07:40:33;;;;;;;19.30;6.93;;;;;;;6.03;97.38;102312.88;5017723;28;20033;-75
2021/11/18 07:42:59;;;;;;;26.45;7.30;;;;;;;6.00;97.18;102321.22;5018827;28;20041;-74
2021/11/18 07:45:26;;;;;;;18.23;6.55;;;;;;;6.13;96.79;102304.66;5019727;28;20030;-74
2021/11/18 07:47:52;;;;;;;22.08;6.80;;;;;;;6.17;96.82;102301.44;5013220;28;21665;-73
2021/11/18 07:50:20;;;;;;;23.05;6.95;;;;;;;6.25;96.52;102306.69;5019093;28;20058;-73
2021/11/18 07:52:46;;;;;;;25.33;7.28;;;;;;;6.25;96.37;102313.84;5017503;28;21069;-73
2021/11/18 07:55:14;;;;;;;22.65;6.63;;;;;;;6.40;96.17;102316.53;5019656;28;20403;-73
2021/11/18 07:57:40;;;;;;;24.20;7.03;;;;;;;6.41;95.46;102310.19;5021126;28;20030;-73
2021/11/18 08:00:10;;;;;;;21.45;7.35;;;;;;;6.53;95.26;102319.41;5018152;28;20068;-75
2021/11/18 08:02:36;;;;;;;28.42;7.15;;;;;;;6.58;94.79;102327.66;5017185;28;20032;-73
2021/11/18 08:05:02;;;;;;;23.58;7.20;;;;;;;6.68;94.56;102333.56;5018516;28;20029;-73
2021/11/18 08:07:28;;;;;;;28.48;7.30;;;;;;;6.76;93.75;102336.09;5018047;28;20040;-73
2021/11/18 08:09:55;;;;;;;28.13;7.78;;;;;;;6.81;93.45;102340.88;5017700;28;20112;-74
2021/11/18 08:12:21;;;;;;;22.35;5.85;;;;;;;6.70;93.45;102341.34;5019231;28;20120;-74
2021/11/18 08:14:46;;;;;;;19.67;6.53;;;;;;;6.81;92.88;102344.38;5018714;28;20021;-73
2021/11/18 08:17:12;;;;;;;21.35;7.55;;;;;;;6.71;92.77;102341.16;5012655;28;20076;-73
2021/11/18 08:19:38;;;;;;;25.13;6.47;;;;;;;6.74;92.95;102340.78;5017594;28;20025;-73
2021/11/18 08:22:04;;;;;;;27.75;5.93;;;;;;;6.79;92.56;102332.25;5017714;28;20037;-73
2021/11/18 08:24:30;;;;;;;16.45;5.68;;;;;;;6.70;93.06;102334.19;5016888;28;20491;-73
2021/11/18 08:26:58;;;;;;;18.23;5.93;;;;;;;6.73;93.31;102340.97;5035332;28;20029;-73
2021/11/18 08:29:26;;;;;;;21.23;6.22;;;;;;;6.85;92.74;102337.69;5018247;28;20072;-74
2021/11/18 08:31:52;;;;;;;19.85;7.18;;;;;;;6.80;93.18;102339.22;5018433;28;20025;-73
2021/11/18 08:34:19;;;;;;;16.38;6.90;;;;;;;6.67;92.83;102334.56;5017783;28;20037;-73
2021/11/18 08:36:46;;;;;;;19.38;6.28;;;;;;;6.82;93.12;102332.72;5019304;28;20022;-73
2021/11/18 08:39:19;;;;;;;19.75;6.07;;;;;;;6.90;92.74;102332.63;5018192;28;20034;-73
2021/11/18 08:41:50;;;;;;;22.77;6.10;;;;;;;6.92;92.08;102321.78;5018279;28;20033;-74
2021/11/18 08:44:16;;;;;;;17.05;6.47;;;;;;;7.06;92.09;102317.44;5017592;28;20061;-74
2021/11/18 08:46:44;;;;;;;17.60;6.35;;;;;;;7.07;91.55;102319.09;5019063;28;20033;-74
2021/11/18 08:49:10;;;;;;;30.73;7.35;;;;;;;7.06;91.80;102317.44;5018854;28;20546;-73
2021/11/18 08:51:35;;;;;;;25.90;6.25;;;;;;;7.08;91.28;102320.75;5017498;28;20030;-73
2021/11/18 08:54:04;;;;;;;12.65;5.22;;;;;;;7.06;91.37;102318.28;5017273;28;20468;-75
2021/11/18 08:56:30;;;;;;;12.15;4.53;;;;;;;7.14;90.96;102314.66;5016337;28;20021;-73
2021/11/18 08:58:57;;;;;;;22.90;5.55;;;;;;;7.15;90.73;102310.97;5011906;28;20026;-75
2021/11/18 09:01:36;;;;;;;13.13;5.18;;;;;;;7.27;89.90;102304.97;5019433;28;20057;-75
2021/11/18 09:04:07;;;;;;;18.90;5.68;;;;;;;7.34;90.20;102318.38;5018541;28;20666;-73
2021/11/18 09:06:33;;;;;;;20.27;5.93;;;;;;;7.30;89.33;102324.28;5017712;28;20025;-74
2021/11/18 09:08:59;;;;;;;18.27;5.45;;;;;;;7.31;89.73;102315.25;5017738;28;20103;-73
2021/11/18 09:11:26;;;;;;;15.57;5.07;;;;;;;7.27;90.03;102323.66;5017099;28;20026;-73
2021/11/18 09:13:53;;;;;;;13.77;5.05;;;;;;;7.36;89.92;102319.03;5019257;28;20033;-73
2021/11/18 09:16:21;;;;;;;23.77;5.90;;;;;;;7.31;89.77;102312.59;5011607;28;20036;-74
2021/11/18 09:18:47;;;;;;;17.05;6.03;;;;;;;7.41;89.82;102315.81;5016677;28;20083;-73
2021/11/18 09:21:18;;;;;;;17.75;5.95;;;;;;;7.32;89.64;102325.75;5017232;28;20515;-73
2021/11/18 09:23:47;;;;;;;17.60;5.65;;;;;;;7.37;89.80;102326.03;5017726;28;20025;-73
2021/11/18 09:26:14;;;;;;;18.55;5.82;;;;;;;7.33;89.54;102338.06;5018891;28;20025;-73
2021/11/18 09:28:40;;;;;;;19.45;5.72;;;;;;;7.38;89.79;102343.66;5026769;28;20018;-73
2021/11/18 09:31:09;;;;;;;22.67;7.53;;;;;;;7.48;89.71;102351.34;5015127;28;20111;-73
2021/11/18 09:33:35;;;;;;;15.88;5.82;;;;;;;7.60;89.61;102335.69;5016585;28;20052;-73
2021/11/18 09:36:05;;;;;;;17.35;6.20;;;;;;;7.62;88.87;102336.31;5030605;28;20092;-75
2021/11/18 09:38:33;;;;;;;17.05;5.57;;;;;;;7.57;89.12;102323.56;5015503;28;20025;-74
2021/11/18 09:41:11;;;;;;;19.58;5.78;;;;;;;7.64;89.04;102324.44;5016569;28;20076;-73
2021/11/18 09:44:06;;;;;;;15.32;5.57;;;;;;;7.38;89.38;102333.00;5024287;28;20161;-73
2021/11/18 09:46:47;;;;;;;16.08;5.03;;;;;;;7.54;89.74;102343.44;5013311;28;20070;-75
2021/11/18 09:49:37;;;;;;;18.92;5.53;;;;;;;7.49;88.79;102355.66;5033490;28;20433;-73
2021/11/18 09:52:08;;;;;;;21.13;6.38;;;;;;;7.54;89.93;102347.91;5016215;28;20037;-73
2021/11/18 09:54:54;;;;;;;21.83;6.53;;;;;;;7.61;89.66;102350.69;5019211;28;20044;-73
2021/11/18 09:57:35;;;;;;;16.42;5.53;;;;;;;7.63;88.54;102348.66;5019464;28;20021;-74
2021/11/18 10:00:38;;;;;;;15.93;4.78;;;;;;;7.65;88.32;102357.28;5018542;28;20026;-74
2021/11/18 10:03:14;;;;;;;16.98;5.00;;;;;;;7.63;89.03;102353.97;4996376;28;20052;-73
2021/11/18 10:06:17;;;;;;;15.52;4.45;;;;;;;7.66;88.81;102341.09;5014355;28;20036;-73
2021/11/18 10:09:12;;;;;;;14.85;4.38;;;;;;;7.67;88.64;102353.41;5020308;28;20549;-74
2021/11/18 10:12:08;;;;;;;14.57;5.63;;;;;;;7.79;88.25;102361.75;5018221;28;20048;-73
2021/11/18 10:14:51;;;;;;;17.88;4.90;;;;;;;7.79;88.37;102356.41;5009177;28;20415;-74
2021/11/18 10:17:44;;;;;;;9.52;5.05;;;;;;;7.68;88.82;102360.38;5015363;28;20022;-73
2021/11/18 10:20:24;;;;;;;14.00;5.15;;;;;;;7.66;89.11;102386.44;5016417;28;20129;-73
2021/11/18 10:22:57;;;;;;;20.33;5.05;;;;;;;7.58;89.83;102360.72;5014157;28;20041;-73
2021/11/18 10:25:28;;;;;;;18.50;5.63;;;;;;;7.47;89.76;102379.03;5016717;28;20386;-73
2021/11/18 10:27:59;;;;;;;12.65;5.20;;;;;;;7.44;90.16;102369.56;5018561;28;20510;-73
2021/11/18 10:30:36;;;;;;;18.17;5.78;;;;;;;7.46;90.55;102362.22;5012736;28;20029;-73
2021/11/18 10:33:19;;;;;;;15.93;5.47;;;;;;;7.51;90.44;102359.78;5018148;28;20022;-73
2021/11/18 10:36:00;;;;;;;21.20;6.07;;;;;;;7.62;89.68;102352.34;5012977;28;20493;-73
2021/11/18 10:38:37;;;;;;;12.38;4.90;;;;;;;7.77;88.96;102339.75;5009302;28;20049;-75
2021/11/18 10:41:04;;;;;;;12.90;4.78;;;;;;;7.91;89.03;102336.22;5015480;28;20682;-73
2021/11/18 10:43:36;;;;;;;15.88;5.47;;;;;;;8.03;88.02;102326.66;5014184;28;20025;-74
2021/11/18 10:46:30;;;;;;;17.95;5.68;;;;;;;8.36;86.74;102324.28;5020639;28;20073;-74
2021/11/18 10:49:15;;;;;;;18.70;5.20;;;;;;;8.76;85.04;102322.66;5007607;28;20033;-74
2021/11/18 10:51:55;;;;;;;15.38;4.70;;;;;;;8.67;84.50;102307.00;5014948;28;20022;-73
2021/11/18 10:54:39;;;;;;;14.48;4.53;;;;;;;8.66;84.23;102311.53;5008379;28;20364;-73
2021/11/18 10:57:05;;;;;;;22.25;5.85;;;;;;;8.55;84.94;102309.41;5014720;28;20390;-73
2021/11/18 10:59:41;;;;;;;16.13;5.22;;;;;;;8.41;85.51;102310.31;5013986;28;20029;-73
2021/11/18 11:02:34;;;;;;;21.13;5.45;;;;;;;8.18;87.16;102308.69;5013432;28;20022;-73
2021/11/18 11:05:21;;;;;;;21.40;6.07;;;;;;;8.15;87.01;102316.28;5014638;28;20033;-73
2021/11/18 11:07:48;;;;;;;16.80;6.05;;;;;;;8.00;89.09;102313.69;5017643;28;20041;-74
2021/11/18 11:10:17;;;;;;;20.70;5.22;;;;;;;8.01;89.13;102311.84;5012472;28;20036;-73
2021/11/18 11:12:46;;;;;;;21.98;5.90;;;;;;;8.09;89.41;102303.72;5013850;28;20026;-74
2021/11/18 11:15:40;;;;;;;19.90;6.22;;;;;;;8.17;89.02;102299.03;5014013;28;20078;-73
2021/11/18 11:18:14;;;;;;;17.15;5.90;;;;;;;8.20;88.31;102297.81;5012767;28;20037;-73
2021/11/18 11:20:52;;;;;;;21.25;7.30;;;;;;;8.18;88.45;102308.69;5013067;28;20041;-73
2021/11/18 11:23:54;;;;;;;16.95;5.53;;;;;;;8.28;88.44;102311.06;5012818;28;20030;-73
2021/11/18 11:26:46;;;;;;;16.35;5.07;;;;;;;8.33;87.87;102305.94;5007774;28;20045;-73
2021/11/18 11:29:37;;;;;;;13.30;4.45;;;;;;;8.26;88.16;102317.56;5008468;28;20106;-74
2021/11/18 11:32:23;;;;;;;13.35;5.60;;;;;;;8.32;88.19;102320.31;5008136;28;20033;-73
2021/11/18 11:35:01;;;;;;;20.40;5.22;;;;;;;8.28;88.20;102329.75;5012369;28;20032;-73